sensor_id;sensor_type;location;lat;lon;timestamp;temperature;humidity
3626;DHT22;1827;50.534;8.316;2023-04-12T00:01:08;6.10;1.00
3626;DHT22;1827;50.534;8.316;2023-04-12T00:03:33;6.10;1.00
3626;DHT22;1827;50.534;8.316;2023-04-12T00:05:59;6.10;1.00
3626;DHT22;1827;50.534;8.316;2023-04-12T00:08:27;6.10;1.00
3626;DHT22;1827;50.534;8.316;2023-04-12T00:10:58;6.00;1.00
3626;DHT22;1827;50.534;8.316;2023-04-12T00:13:24;6.10;1.00
3626;DHT22;1827;50.534;8.316;2023-04-12T00:15:50;6.10;1.00
3626;DHT22;1827;50.534;8.316;2023-04-12T00:18:16;6.10;1.00
3626;DHT22;1827;50.534;8.316;2023-04-12T00:20:41;6.10;1.00
3626;DHT22;1827;50.534;8.316;2023-04-12T00:23:07;6.10;1.00
3626;DHT22;1827;50.534;8.316;2023-04-12T00:25:34;6.10;1.00
3626;DHT22;1827;50.534;8.316;2023-04-12T00:28:00;6.10;1.00
3626;DHT22;1827;50.534;8.316;2023-04-12T00:30:26;6.10;1.00
3626;DHT22;1827;50.534;8.316;2023-04-12T00:32:52;6.10;1.00
3626;DHT22;1827;50.534;8.316;2023-04-12T00:35:18;6.10;1.00
3626;DHT22;1827;50.534;8.316;2023-04-12T00:37:45;6.10;1.00
3626;DHT22;1827;50.534;8.316;2023-04-12T00:40:10;6.10;1.00
3626;DHT22;1827;50.534;8.316;2023-04-12T00:42:36;6.10;1.00
3626;DHT22;1827;50.534;8.316;2023-04-12T00:45:02;6.20;1.00
3626;DHT22;1827;50.534;8.316;2023-04-12T00:47:28;6.20;1.00
3626;DHT22;1827;50.534;8.316;2023-04-12T00:49:54;6.20;1.00
3626;DHT22;1827;50.534;8.316;2023-04-12T00:52:21;6.10;1.00
3626;DHT22;1827;50.534;8.316;2023-04-12T00:54:47;6.10;1.00
3626;DHT22;1827;50.534;8.316;2023-04-12T00:57:13;6.00;1.00
3626;DHT22;1827;50.534;8.316;2023-04-12T00:59:38;6.10;1.00
3626;DHT22;1827;50.534;8.316;2023-04-12T01:02:04;6.20;1.00
3626;DHT22;1827;50.534;8.316;2023-04-12T01:04:30;6.20;1.00
3626;DHT22;1827;50.534;8.316;2023-04-12T01:07:09;6.10;1.00
3626;DHT22;1827;50.534;8.316;2023-04-12T01:09:49;6.20;3.10
3626;DHT22;1827;50.534;8.316;2023-04-12T01:15:25;6.20;45.20
3626;DHT22;1827;50.534;8.316;2023-04-12T01:17:33;6.10;75.50
3626;DHT22;1827;50.534;8.316;2023-04-12T01:20:10;6.10;99.90
3626;DHT22;1827;50.534;8.316;2023-04-12T01:28:01;5.90;99.90
3626;DHT22;1827;50.534;8.316;2023-04-12T01:30:27;5.80;99.90
3626;DHT22;1827;50.534;8.316;2023-04-12T01:32:54;5.90;99.90
3626;DHT22;1827;50.534;8.316;2023-04-12T01:35:22;5.90;99.90
3626;DHT22;1827;50.534;8.316;2023-04-12T01:37:48;5.90;99.90
3626;DHT22;1827;50.534;8.316;2023-04-12T01:40:16;5.90;99.90
3626;DHT22;1827;50.534;8.316;2023-04-12T01:42:42;6.00;99.90
3626;DHT22;1827;50.534;8.316;2023-04-12T01:45:07;6.00;99.90
3626;DHT22;1827;50.534;8.316;2023-04-12T01:47:34;5.80;99.90
3626;DHT22;1827;50.534;8.316;2023-04-12T01:50:11;5.80;99.90
3626;DHT22;1827;50.534;8.316;2023-04-12T01:52:41;5.70;99.90
3626;DHT22;1827;50.534;8.316;2023-04-12T01:55:07;5.80;99.90
3626;DHT22;1827;50.534;8.316;2023-04-12T01:57:34;5.80;99.90
3626;DHT22;1827;50.534;8.316;2023-04-12T02:00:02;6.00;99.90
3626;DHT22;1827;50.534;8.316;2023-04-12T02:02:38;6.00;1.00
3626;DHT22;1827;50.534;8.316;2023-04-12T02:05:05;6.00;1.00
3626;DHT22;1827;50.534;8.316;2023-04-12T02:07:32;5.70;1.00
3626;DHT22;1827;50.534;8.316;2023-04-12T02:09:58;5.70;1.00
3626;DHT22;1827;50.534;8.316;2023-04-12T02:12:24;5.70;1.00
3626;DHT22;1827;50.534;8.316;2023-04-12T02:14:49;5.70;1.00
3626;DHT22;1827;50.534;8.316;2023-04-12T02:17:16;5.50;1.00
3626;DHT22;1827;50.534;8.316;2023-04-12T02:19:42;5.50;1.00
3626;DHT22;1827;50.534;8.316;2023-04-12T02:22:09;5.50;1.00
3626;DHT22;1827;50.534;8.316;2023-04-12T02:24:35;5.50;1.00
3626;DHT22;1827;50.534;8.316;2023-04-12T02:27:00;5.60;1.00
3626;DHT22;1827;50.534;8.316;2023-04-12T02:29:27;5.70;50.80
3626;DHT22;1827;50.534;8.316;2023-04-12T02:31:52;5.70;99.90
3626;DHT22;1827;50.534;8.316;2023-04-12T02:34:20;5.70;99.90
3626;DHT22;1827;50.534;8.316;2023-04-12T02:36:53;5.80;99.90
3626;DHT22;1827;50.534;8.316;2023-04-12T02:39:19;5.80;99.90
3626;DHT22;1827;50.534;8.316;2023-04-12T02:41:47;5.90;99.90
3626;DHT22;1827;50.534;8.316;2023-04-12T02:44:14;5.90;99.90
3626;DHT22;1827;50.534;8.316;2023-04-12T02:46:45;6.10;99.90
3626;DHT22;1827;50.534;8.316;2023-04-12T02:49:14;6.20;99.90
3626;DHT22;1827;50.534;8.316;2023-04-12T02:51:41;6.30;99.90
3626;DHT22;1827;50.534;8.316;2023-04-12T02:54:07;6.30;99.90
3626;DHT22;1827;50.534;8.316;2023-04-12T02:56:52;6.40;99.90
3626;DHT22;1827;50.534;8.316;2023-04-12T02:59:44;6.30;99.90
3626;DHT22;1827;50.534;8.316;2023-04-12T03:02:22;6.30;1.00
3626;DHT22;1827;50.534;8.316;2023-04-12T03:04:50;6.40;1.00
3626;DHT22;1827;50.534;8.316;2023-04-12T03:07:20;6.40;1.00
3626;DHT22;1827;50.534;8.316;2023-04-12T03:09:49;6.40;1.00
3626;DHT22;1827;50.534;8.316;2023-04-12T03:12:16;6.30;1.00
3626;DHT22;1827;50.534;8.316;2023-04-12T03:14:52;6.30;1.00
3626;DHT22;1827;50.534;8.316;2023-04-12T03:17:22;6.40;1.00
3626;DHT22;1827;50.534;8.316;2023-04-12T03:19:48;6.40;1.00
3626;DHT22;1827;50.534;8.316;2023-04-12T03:22:15;6.40;1.00
3626;DHT22;1827;50.534;8.316;2023-04-12T03:24:44;6.50;1.00
3626;DHT22;1827;50.534;8.316;2023-04-12T03:27:14;6.50;1.00
3626;DHT22;1827;50.534;8.316;2023-04-12T03:29:40;6.50;1.00
3626;DHT22;1827;50.534;8.316;2023-04-12T03:32:06;6.50;1.00
3626;DHT22;1827;50.534;8.316;2023-04-12T03:34:33;6.50;1.00
3626;DHT22;1827;50.534;8.316;2023-04-12T03:37:06;6.50;1.00
3626;DHT22;1827;50.534;8.316;2023-04-12T03:39:37;6.50;1.00
3626;DHT22;1827;50.534;8.316;2023-04-12T03:42:06;6.40;1.00
3626;DHT22;1827;50.534;8.316;2023-04-12T03:44:32;6.50;1.00
3626;DHT22;1827;50.534;8.316;2023-04-12T03:47:02;6.50;1.00
3626;DHT22;1827;50.534;8.316;2023-04-12T03:49:33;6.50;1.00
3626;DHT22;1827;50.534;8.316;2023-04-12T03:52:00;6.40;1.00
3626;DHT22;1827;50.534;8.316;2023-04-12T03:54:27;6.60;1.00
3626;DHT22;1827;50.534;8.316;2023-04-12T03:56:57;6.60;1.00
3626;DHT22;1827;50.534;8.316;2023-04-12T03:59:29;6.50;1.00
3626;DHT22;1827;50.534;8.316;2023-04-12T04:01:55;6.50;1.00
3626;DHT22;1827;50.534;8.316;2023-04-12T04:04:23;6.50;1.00
3626;DHT22;1827;50.534;8.316;2023-04-12T04:06:53;6.40;1.00
3626;DHT22;1827;50.534;8.316;2023-04-12T04:09:19;6.50;1.00
3626;DHT22;1827;50.534;8.316;2023-04-12T04:11:46;6.50;1.00
3626;DHT22;1827;50.534;8.316;2023-04-12T04:14:12;6.40;1.00
3626;DHT22;1827;50.534;8.316;2023-04-12T04:16:37;6.40;1.00
3626;DHT22;1827;50.534;8.316;2023-04-12T04:19:05;6.50;1.00
3626;DHT22;1827;50.534;8.316;2023-04-12T04:21:31;6.50;1.00
3626;DHT22;1827;50.534;8.316;2023-04-12T04:23:58;6.40;1.00
3626;DHT22;1827;50.534;8.316;2023-04-12T04:26:34;6.50;1.00
3626;DHT22;1827;50.534;8.316;2023-04-12T04:29:19;6.50;1.00
3626;DHT22;1827;50.534;8.316;2023-04-12T04:31:45;6.40;1.00
3626;DHT22;1827;50.534;8.316;2023-04-12T04:34:12;6.40;1.00
3626;DHT22;1827;50.534;8.316;2023-04-12T04:36:41;6.50;1.00
3626;DHT22;1827;50.534;8.316;2023-04-12T04:39:08;6.50;1.00
3626;DHT22;1827;50.534;8.316;2023-04-12T04:41:38;6.50;1.00
3626;DHT22;1827;50.534;8.316;2023-04-12T04:44:08;6.50;1.00
3626;DHT22;1827;50.534;8.316;2023-04-12T04:46:36;6.60;1.00
3626;DHT22;1827;50.534;8.316;2023-04-12T04:49:05;6.70;1.00
3626;DHT22;1827;50.534;8.316;2023-04-12T04:51:31;6.70;1.00
3626;DHT22;1827;50.534;8.316;2023-04-12T04:53:59;6.60;1.00
3626;DHT22;1827;50.534;8.316;2023-04-12T04:56:25;6.60;1.00
3626;DHT22;1827;50.534;8.316;2023-04-12T04:58:52;6.60;1.00
3626;DHT22;1827;50.534;8.316;2023-04-12T05:01:19;6.50;1.00
3626;DHT22;1827;50.534;8.316;2023-04-12T05:03:47;6.70;1.00
3626;DHT22;1827;50.534;8.316;2023-04-12T05:06:15;6.70;1.00
3626;DHT22;1827;50.534;8.316;2023-04-12T05:08:42;6.60;1.00
3626;DHT22;1827;50.534;8.316;2023-04-12T05:11:08;6.60;1.00
3626;DHT22;1827;50.534;8.316;2023-04-12T05:13:33;6.70;1.00
3626;DHT22;1827;50.534;8.316;2023-04-12T05:15:59;6.70;1.00
3626;DHT22;1827;50.534;8.316;2023-04-12T05:18:25;6.70;1.00
3626;DHT22;1827;50.534;8.316;2023-04-12T05:20:52;6.60;1.00
3626;DHT22;1827;50.534;8.316;2023-04-12T05:23:17;6.60;33.40
3626;DHT22;1827;50.534;8.316;2023-04-12T05:25:46;6.50;99.90
3626;DHT22;1827;50.534;8.316;2023-04-12T05:28:13;6.50;99.90
3626;DHT22;1827;50.534;8.316;2023-04-12T05:30:40;6.60;99.90
3626;DHT22;1827;50.534;8.316;2023-04-12T05:33:11;6.60;99.90
3626;DHT22;1827;50.534;8.316;2023-04-12T05:35:42;6.60;99.90
3626;DHT22;1827;50.534;8.316;2023-04-12T05:38:10;6.70;99.90
3626;DHT22;1827;50.534;8.316;2023-04-12T05:40:35;6.70;99.90
3626;DHT22;1827;50.534;8.316;2023-04-12T05:43:02;6.70;99.90
3626;DHT22;1827;50.534;8.316;2023-04-12T05:45:30;6.60;99.90
3626;DHT22;1827;50.534;8.316;2023-04-12T05:47:57;6.60;99.90
3626;DHT22;1827;50.534;8.316;2023-04-12T05:50:23;6.60;99.90
3626;DHT22;1827;50.534;8.316;2023-04-12T05:52:53;6.60;99.90
3626;DHT22;1827;50.534;8.316;2023-04-12T05:55:24;6.60;99.90
3626;DHT22;1827;50.534;8.316;2023-04-12T05:57:50;6.50;99.90
3626;DHT22;1827;50.534;8.316;2023-04-12T06:00:18;6.50;1.00
3626;DHT22;1827;50.534;8.316;2023-04-12T06:02:45;6.50;1.00
3626;DHT22;1827;50.534;8.316;2023-04-12T06:05:12;6.50;1.00
3626;DHT22;1827;50.534;8.316;2023-04-12T06:07:38;6.50;1.00
3626;DHT22;1827;50.534;8.316;2023-04-12T06:10:04;6.60;1.00
3626;DHT22;1827;50.534;8.316;2023-04-12T06:12:31;6.60;1.00
3626;DHT22;1827;50.534;8.316;2023-04-12T06:14:57;6.60;1.00
3626;DHT22;1827;50.534;8.316;2023-04-12T06:17:22;6.60;34.50
3626;DHT22;1827;50.534;8.316;2023-04-12T06:19:51;6.50;83.50
3626;DHT22;1827;50.534;8.316;2023-04-12T06:22:16;6.50;99.90
3626;DHT22;1827;50.534;8.316;2023-04-12T06:24:42;6.50;99.90
3626;DHT22;1827;50.534;8.316;2023-04-12T06:27:09;6.60;99.90
3626;DHT22;1827;50.534;8.316;2023-04-12T06:29:36;6.60;99.90
3626;DHT22;1827;50.534;8.316;2023-04-12T06:32:03;6.60;1.00
3626;DHT22;1827;50.534;8.316;2023-04-12T06:34:29;6.50;1.00
3626;DHT22;1827;50.534;8.316;2023-04-12T06:36:59;6.50;1.00
3626;DHT22;1827;50.534;8.316;2023-04-12T06:39:25;6.50;1.00
3626;DHT22;1827;50.534;8.316;2023-04-12T06:41:50;6.50;1.00
3626;DHT22;1827;50.534;8.316;2023-04-12T06:44:19;6.60;61.40
3626;DHT22;1827;50.534;8.316;2023-04-12T06:46:44;6.70;99.90
3626;DHT22;1827;50.534;8.316;2023-04-12T06:49:10;6.70;99.90
3626;DHT22;1827;50.534;8.316;2023-04-12T06:51:36;6.70;99.90
3626;DHT22;1827;50.534;8.316;2023-04-12T06:54:02;6.80;99.90
3626;DHT22;1827;50.534;8.316;2023-04-12T06:56:27;6.70;99.90
3626;DHT22;1827;50.534;8.316;2023-04-12T06:58:53;6.80;99.90
3626;DHT22;1827;50.534;8.316;2023-04-12T07:01:18;6.80;99.90
3626;DHT22;1827;50.534;8.316;2023-04-12T07:03:44;6.90;1.00
3626;DHT22;1827;50.534;8.316;2023-04-12T07:06:10;6.80;1.00
3626;DHT22;1827;50.534;8.316;2023-04-12T07:08:35;6.80;1.00
3626;DHT22;1827;50.534;8.316;2023-04-12T07:11:01;6.80;1.00
3626;DHT22;1827;50.534;8.316;2023-04-12T07:13:27;6.80;1.00
3626;DHT22;1827;50.534;8.316;2023-04-12T07:15:53;6.90;24.10
3626;DHT22;1827;50.534;8.316;2023-04-12T07:18:19;6.90;99.90
3626;DHT22;1827;50.534;8.316;2023-04-12T07:20:45;7.00;99.90
3626;DHT22;1827;50.534;8.316;2023-04-12T07:23:12;7.10;99.90
3626;DHT22;1827;50.534;8.316;2023-04-12T07:25:37;7.10;99.90
3626;DHT22;1827;50.534;8.316;2023-04-12T07:28:03;7.10;99.90
3626;DHT22;1827;50.534;8.316;2023-04-12T07:30:28;7.10;99.90
3626;DHT22;1827;50.534;8.316;2023-04-12T07:32:54;7.20;99.90
3626;DHT22;1827;50.534;8.316;2023-04-12T07:35:20;7.20;99.90
3626;DHT22;1827;50.534;8.316;2023-04-12T07:37:46;7.30;99.90
3626;DHT22;1827;50.534;8.316;2023-04-12T07:40:11;7.40;99.90
3626;DHT22;1827;50.534;8.316;2023-04-12T07:42:37;7.40;99.90
3626;DHT22;1827;50.534;8.316;2023-04-12T07:45:02;7.40;99.90
3626;DHT22;1827;50.534;8.316;2023-04-12T07:47:28;7.40;88.60
3626;DHT22;1827;50.534;8.316;2023-04-12T07:49:54;7.30;1.00
3626;DHT22;1827;50.534;8.316;2023-04-12T07:52:19;7.40;44.90
3626;DHT22;1827;50.534;8.316;2023-04-12T07:54:45;7.50;99.90
3626;DHT22;1827;50.534;8.316;2023-04-12T07:57:11;7.60;89.80
3626;DHT22;1827;50.534;8.316;2023-04-12T07:59:36;7.70;99.90
3626;DHT22;1827;50.534;8.316;2023-04-12T08:02:02;7.70;99.90
3626;DHT22;1827;50.534;8.316;2023-04-12T08:04:27;7.80;99.90
3626;DHT22;1827;50.534;8.316;2023-04-12T08:06:53;8.00;99.90
3626;DHT22;1827;50.534;8.316;2023-04-12T08:09:19;7.80;1.00
3626;DHT22;1827;50.534;8.316;2023-04-12T08:11:44;7.90;1.00
3626;DHT22;1827;50.534;8.316;2023-04-12T08:14:11;7.90;1.00
3626;DHT22;1827;50.534;8.316;2023-04-12T08:16:37;7.90;1.00
3626;DHT22;1827;50.534;8.316;2023-04-12T08:19:03;8.00;1.00
3626;DHT22;1827;50.534;8.316;2023-04-12T08:21:28;7.80;1.00
3626;DHT22;1827;50.534;8.316;2023-04-12T08:23:54;7.80;1.00
3626;DHT22;1827;50.534;8.316;2023-04-12T08:26:20;7.80;1.00
3626;DHT22;1827;50.534;8.316;2023-04-12T08:28:45;7.60;1.00
3626;DHT22;1827;50.534;8.316;2023-04-12T08:31:13;7.60;1.00
3626;DHT22;1827;50.534;8.316;2023-04-12T08:33:39;7.70;1.00
3626;DHT22;1827;50.534;8.316;2023-04-12T08:36:04;7.60;1.00
3626;DHT22;1827;50.534;8.316;2023-04-12T08:38:30;7.60;1.00
3626;DHT22;1827;50.534;8.316;2023-04-12T08:40:56;7.60;1.00
3626;DHT22;1827;50.534;8.316;2023-04-12T08:43:22;7.60;55.80
3626;DHT22;1827;50.534;8.316;2023-04-12T08:45:52;7.60;99.90
3626;DHT22;1827;50.534;8.316;2023-04-12T08:48:18;7.50;99.90
3626;DHT22;1827;50.534;8.316;2023-04-12T08:50:44;7.50;1.00
3626;DHT22;1827;50.534;8.316;2023-04-12T08:53:10;7.70;1.00
3626;DHT22;1827;50.534;8.316;2023-04-12T08:55:36;7.80;1.00
3626;DHT22;1827;50.534;8.316;2023-04-12T08:58:02;8.00;1.00
3626;DHT22;1827;50.534;8.316;2023-04-12T09:00:32;7.90;1.00
3626;DHT22;1827;50.534;8.316;2023-04-12T09:02:58;8.00;1.00
3626;DHT22;1827;50.534;8.316;2023-04-12T09:05:27;7.80;1.00
3626;DHT22;1827;50.534;8.316;2023-04-12T09:07:54;7.80;1.00
3626;DHT22;1827;50.534;8.316;2023-04-12T09:10:35;7.90;1.00
3626;DHT22;1827;50.534;8.316;2023-04-12T09:13:02;8.00;99.90
3626;DHT22;1827;50.534;8.316;2023-04-12T09:15:28;8.10;99.90
3626;DHT22;1827;50.534;8.316;2023-04-12T09:18:10;8.10;99.90
3626;DHT22;1827;50.534;8.316;2023-04-12T09:20:36;8.10;99.90
3626;DHT22;1827;50.534;8.316;2023-04-12T09:23:17;8.10;99.90
3626;DHT22;1827;50.534;8.316;2023-04-12T09:25:43;8.10;99.90
3626;DHT22;1827;50.534;8.316;2023-04-12T09:28:26;8.30;1.00
3626;DHT22;1827;50.534;8.316;2023-04-12T09:30:52;8.30;1.00
3626;DHT22;1827;50.534;8.316;2023-04-12T09:33:19;8.60;1.00
3626;DHT22;1827;50.534;8.316;2023-04-12T09:35:45;8.50;1.00
3626;DHT22;1827;50.534;8.316;2023-04-12T09:38:11;8.50;99.90
3626;DHT22;1827;50.534;8.316;2023-04-12T09:40:37;8.70;1.00
3626;DHT22;1827;50.534;8.316;2023-04-12T09:43:03;8.80;1.00
3626;DHT22;1827;50.534;8.316;2023-04-12T09:45:32;8.90;1.00
3626;DHT22;1827;50.534;8.316;2023-04-12T09:47:57;9.10;1.00
3626;DHT22;1827;50.534;8.316;2023-04-12T09:50:24;9.20;1.00
3626;DHT22;1827;50.534;8.316;2023-04-12T09:52:51;9.10;99.90
3626;DHT22;1827;50.534;8.316;2023-04-12T09:55:17;9.30;99.90
3626;DHT22;1827;50.534;8.316;2023-04-12T09:57:45;9.40;99.90
3626;DHT22;1827;50.534;8.316;2023-04-12T10:00:11;9.60;99.90
3626;DHT22;1827;50.534;8.316;2023-04-12T10:02:41;9.70;99.80
3626;DHT22;1827;50.534;8.316;2023-04-12T10:05:09;9.80;1.00
3626;DHT22;1827;50.534;8.316;2023-04-12T10:07:35;9.90;1.00
3626;DHT22;1827;50.534;8.316;2023-04-12T10:10:02;10.20;1.00
3626;DHT22;1827;50.534;8.316;2023-04-12T10:12:28;10.40;1.00
3626;DHT22;1827;50.534;8.316;2023-04-12T10:14:54;10.10;1.00
3626;DHT22;1827;50.534;8.316;2023-04-12T10:17:20;10.10;1.00
3626;DHT22;1827;50.534;8.316;2023-04-12T10:19:46;10.10;1.00
3626;DHT22;1827;50.534;8.316;2023-04-12T10:22:13;10.30;1.00
3626;DHT22;1827;50.534;8.316;2023-04-12T10:24:39;10.60;99.90
3626;DHT22;1827;50.534;8.316;2023-04-12T10:27:05;10.50;99.90
3626;DHT22;1827;50.534;8.316;2023-04-12T10:29:31;10.50;21.70
3626;DHT22;1827;50.534;8.316;2023-04-12T10:34:43;10.30;1.00
3626;DHT22;1827;50.534;8.316;2023-04-12T10:37:09;10.50;1.00
3626;DHT22;1827;50.534;8.316;2023-04-12T10:39:39;10.90;1.00
3626;DHT22;1827;50.534;8.316;2023-04-12T10:42:14;11.10;1.00
3626;DHT22;1827;50.534;8.316;2023-04-12T10:44:40;11.00;99.90
3626;DHT22;1827;50.534;8.316;2023-04-12T10:47:05;10.90;99.90
3626;DHT22;1827;50.534;8.316;2023-04-12T10:49:31;10.60;1.00
3626;DHT22;1827;50.534;8.316;2023-04-12T10:56:54;11.10;1.00
3626;DHT22;1827;50.534;8.316;2023-04-12T11:02:15;10.80;1.00
3626;DHT22;1827;50.534;8.316;2023-04-12T11:07:47;10.90;1.00
3626;DHT22;1827;50.534;8.316;2023-04-12T11:10:35;10.90;99.90
3626;DHT22;1827;50.534;8.316;2023-04-12T11:13:04;10.80;99.90
3626;DHT22;1827;50.534;8.316;2023-04-12T11:15:31;10.80;99.90
3626;DHT22;1827;50.534;8.316;2023-04-12T11:17:58;10.80;99.90
3626;DHT22;1827;50.534;8.316;2023-04-12T11:20:25;10.60;99.90
3626;DHT22;1827;50.534;8.316;2023-04-12T11:22:51;10.70;99.90
3626;DHT22;1827;50.534;8.316;2023-04-12T11:25:18;10.70;99.90
3626;DHT22;1827;50.534;8.316;2023-04-12T11:27:50;10.80;99.90
3626;DHT22;1827;50.534;8.316;2023-04-12T11:30:16;11.00;90.80
3626;DHT22;1827;50.534;8.316;2023-04-12T11:32:43;11.20;1.00
3626;DHT22;1827;50.534;8.316;2023-04-12T11:35:09;11.00;1.00
3626;DHT22;1827;50.534;8.316;2023-04-12T11:37:36;10.80;1.00
3626;DHT22;1827;50.534;8.316;2023-04-12T11:40:02;10.90;1.00
3626;DHT22;1827;50.534;8.316;2023-04-12T11:42:29;10.90;1.00
3626;DHT22;1827;50.534;8.316;2023-04-12T11:44:55;10.80;1.00
3626;DHT22;1827;50.534;8.316;2023-04-12T11:47:21;10.90;1.00
3626;DHT22;1827;50.534;8.316;2023-04-12T11:52:14;11.00;1.00
3626;DHT22;1827;50.534;8.316;2023-04-12T11:54:41;11.10;1.00
3626;DHT22;1827;50.534;8.316;2023-04-12T11:57:09;11.10;1.00
3626;DHT22;1827;50.534;8.316;2023-04-12T11:59:35;11.30;1.00
3626;DHT22;1827;50.534;8.316;2023-04-12T12:02:01;11.60;1.00
3626;DHT22;1827;50.534;8.316;2023-04-12T12:04:27;11.90;1.00
3626;DHT22;1827;50.534;8.316;2023-04-12T12:06:54;12.00;1.00
3626;DHT22;1827;50.534;8.316;2023-04-12T12:09:20;12.30;1.00
3626;DHT22;1827;50.534;8.316;2023-04-12T12:11:46;12.60;1.00
3626;DHT22;1827;50.534;8.316;2023-04-12T12:14:12;12.90;1.00
3626;DHT22;1827;50.534;8.316;2023-04-12T12:16:42;13.30;1.00
3626;DHT22;1827;50.534;8.316;2023-04-12T12:19:15;13.30;1.00
3626;DHT22;1827;50.534;8.316;2023-04-12T12:21:49;13.30;1.00
3626;DHT22;1827;50.534;8.316;2023-04-12T12:24:16;13.00;99.90
3626;DHT22;1827;50.534;8.316;2023-04-12T12:26:42;12.60;99.90
3626;DHT22;1827;50.534;8.316;2023-04-12T12:29:15;12.60;99.90
3626;DHT22;1827;50.534;8.316;2023-04-12T12:31:44;12.60;99.90
3626;DHT22;1827;50.534;8.316;2023-04-12T12:34:12;13.20;99.90
3626;DHT22;1827;50.534;8.316;2023-04-12T12:36:37;13.50;99.90
3626;DHT22;1827;50.534;8.316;2023-04-12T12:39:06;13.60;99.90
3626;DHT22;1827;50.534;8.316;2023-04-12T12:41:34;13.50;17.70
3626;DHT22;1827;50.534;8.316;2023-04-12T12:44:00;13.70;1.00
3626;DHT22;1827;50.534;8.316;2023-04-12T12:46:26;14.00;1.00
3626;DHT22;1827;50.534;8.316;2023-04-12T12:48:52;14.40;1.00
3626;DHT22;1827;50.534;8.316;2023-04-12T12:51:17;14.60;1.00
3626;DHT22;1827;50.534;8.316;2023-04-12T12:53:46;15.10;1.00
3626;DHT22;1827;50.534;8.316;2023-04-12T12:56:12;15.20;1.00
3626;DHT22;1827;50.534;8.316;2023-04-12T12:58:42;14.90;1.00
3626;DHT22;1827;50.534;8.316;2023-04-12T13:01:13;15.40;1.00
3626;DHT22;1827;50.534;8.316;2023-04-12T13:03:46;15.50;1.00
3626;DHT22;1827;50.534;8.316;2023-04-12T13:06:12;15.30;99.90
3626;DHT22;1827;50.534;8.316;2023-04-12T13:08:38;15.60;99.90
3626;DHT22;1827;50.534;8.316;2023-04-12T13:11:03;15.70;99.90
3626;DHT22;1827;50.534;8.316;2023-04-12T13:13:30;16.00;99.90
3626;DHT22;1827;50.534;8.316;2023-04-12T13:15:56;15.70;99.90
3626;DHT22;1827;50.534;8.316;2023-04-12T13:18:22;15.30;94.60
3626;DHT22;1827;50.534;8.316;2023-04-12T13:20:48;14.80;33.80
3626;DHT22;1827;50.534;8.316;2023-04-12T13:23:16;14.60;9.90
3626;DHT22;1827;50.534;8.316;2023-04-12T13:25:42;14.50;11.40
3626;DHT22;1827;50.534;8.316;2023-04-12T13:28:09;15.00;11.50
3626;DHT22;1827;50.534;8.316;2023-04-12T13:30:37;15.20;1.00
3626;DHT22;1827;50.534;8.316;2023-04-12T13:33:02;15.20;1.00
3626;DHT22;1827;50.534;8.316;2023-04-12T13:35:30;15.40;1.00
3626;DHT22;1827;50.534;8.316;2023-04-12T13:38:01;15.40;1.00
3626;DHT22;1827;50.534;8.316;2023-04-12T13:40:27;15.40;1.00
3626;DHT22;1827;50.534;8.316;2023-04-12T13:42:53;15.20;1.00
3626;DHT22;1827;50.534;8.316;2023-04-12T13:45:19;15.10;1.00
3626;DHT22;1827;50.534;8.316;2023-04-12T13:47:45;14.80;1.00
3626;DHT22;1827;50.534;8.316;2023-04-12T13:50:10;14.40;1.00
3626;DHT22;1827;50.534;8.316;2023-04-12T13:52:41;14.30;1.00
3626;DHT22;1827;50.534;8.316;2023-04-12T13:55:07;14.10;1.00
3626;DHT22;1827;50.534;8.316;2023-04-12T13:57:35;14.00;1.00
3626;DHT22;1827;50.534;8.316;2023-04-12T14:00:01;14.10;1.00
3626;DHT22;1827;50.534;8.316;2023-04-12T14:02:27;14.10;1.00
3626;DHT22;1827;50.534;8.316;2023-04-12T14:04:52;14.00;1.00
3626;DHT22;1827;50.534;8.316;2023-04-12T14:07:27;14.20;1.00
3626;DHT22;1827;50.534;8.316;2023-04-12T14:09:53;15.00;1.00
3626;DHT22;1827;50.534;8.316;2023-04-12T14:12:20;15.70;1.00
3626;DHT22;1827;50.534;8.316;2023-04-12T14:14:45;15.70;1.00
3626;DHT22;1827;50.534;8.316;2023-04-12T14:17:11;15.50;1.00
3626;DHT22;1827;50.534;8.316;2023-04-12T14:19:37;15.30;1.00
3626;DHT22;1827;50.534;8.316;2023-04-12T14:22:02;14.70;1.00
3626;DHT22;1827;50.534;8.316;2023-04-12T14:24:29;14.40;1.00
3626;DHT22;1827;50.534;8.316;2023-04-12T14:26:55;14.20;1.00
3626;DHT22;1827;50.534;8.316;2023-04-12T14:29:21;13.80;1.00
3626;DHT22;1827;50.534;8.316;2023-04-12T14:31:47;13.10;1.00
3626;DHT22;1827;50.534;8.316;2023-04-12T14:34:15;12.70;1.00
3626;DHT22;1827;50.534;8.316;2023-04-12T14:36:41;12.50;1.00
3626;DHT22;1827;50.534;8.316;2023-04-12T14:39:06;12.20;1.00
3626;DHT22;1827;50.534;8.316;2023-04-12T14:41:34;12.00;1.00
3626;DHT22;1827;50.534;8.316;2023-04-12T14:44:00;12.10;1.00
3626;DHT22;1827;50.534;8.316;2023-04-12T14:46:26;11.90;1.00
3626;DHT22;1827;50.534;8.316;2023-04-12T14:48:55;11.90;1.00
3626;DHT22;1827;50.534;8.316;2023-04-12T14:51:21;11.80;1.00
3626;DHT22;1827;50.534;8.316;2023-04-12T14:53:46;11.70;1.00
3626;DHT22;1827;50.534;8.316;2023-04-12T14:56:16;11.90;1.00
3626;DHT22;1827;50.534;8.316;2023-04-12T14:58:42;12.10;1.00
3626;DHT22;1827;50.534;8.316;2023-04-12T15:01:09;12.10;1.00
3626;DHT22;1827;50.534;8.316;2023-04-12T15:03:35;11.90;1.00
3626;DHT22;1827;50.534;8.316;2023-04-12T15:06:00;11.60;39.60
3626;DHT22;1827;50.534;8.316;2023-04-12T15:08:26;11.50;91.30
3626;DHT22;1827;50.534;8.316;2023-04-12T15:10:53;11.50;99.90
3626;DHT22;1827;50.534;8.316;2023-04-12T15:13:18;11.60;99.90
3626;DHT22;1827;50.534;8.316;2023-04-12T15:15:44;11.70;99.90
3626;DHT22;1827;50.534;8.316;2023-04-12T15:18:11;11.70;99.90
3626;DHT22;1827;50.534;8.316;2023-04-12T15:20:36;11.60;99.90
3626;DHT22;1827;50.534;8.316;2023-04-12T15:23:02;11.40;99.90
3626;DHT22;1827;50.534;8.316;2023-04-12T15:25:28;11.30;99.90
3626;DHT22;1827;50.534;8.316;2023-04-12T15:27:55;11.40;99.90
3626;DHT22;1827;50.534;8.316;2023-04-12T15:30:20;11.30;99.90
3626;DHT22;1827;50.534;8.316;2023-04-12T15:32:49;11.30;99.90
3626;DHT22;1827;50.534;8.316;2023-04-12T15:35:15;11.30;99.90
3626;DHT22;1827;50.534;8.316;2023-04-12T15:37:42;11.40;1.00
3626;DHT22;1827;50.534;8.316;2023-04-12T15:40:08;11.20;1.00
3626;DHT22;1827;50.534;8.316;2023-04-12T15:42:38;11.00;1.00
3626;DHT22;1827;50.534;8.316;2023-04-12T15:45:06;10.90;1.00
3626;DHT22;1827;50.534;8.316;2023-04-12T15:47:33;11.00;1.00
3626;DHT22;1827;50.534;8.316;2023-04-12T15:49:59;11.20;1.00
3626;DHT22;1827;50.534;8.316;2023-04-12T15:52:24;11.30;1.00
3626;DHT22;1827;50.534;8.316;2023-04-12T15:54:51;11.70;1.00
3626;DHT22;1827;50.534;8.316;2023-04-12T15:57:16;12.10;1.00
3626;DHT22;1827;50.534;8.316;2023-04-12T15:59:42;12.30;99.90
3626;DHT22;1827;50.534;8.316;2023-04-12T16:02:11;12.20;99.90
3626;DHT22;1827;50.534;8.316;2023-04-12T16:04:36;11.90;99.90
3626;DHT22;1827;50.534;8.316;2023-04-12T16:07:02;11.90;99.90
3626;DHT22;1827;50.534;8.316;2023-04-12T16:09:29;12.00;99.90
3626;DHT22;1827;50.534;8.316;2023-04-12T16:11:57;11.90;99.90
3626;DHT22;1827;50.534;8.316;2023-04-12T16:14:22;11.80;99.90
3626;DHT22;1827;50.534;8.316;2023-04-12T16:16:48;11.90;99.90
3626;DHT22;1827;50.534;8.316;2023-04-12T16:19:14;11.70;99.90
3626;DHT22;1827;50.534;8.316;2023-04-12T16:21:40;11.50;99.90
3626;DHT22;1827;50.534;8.316;2023-04-12T16:24:06;11.40;99.90
3626;DHT22;1827;50.534;8.316;2023-04-12T16:26:32;11.40;99.90
3626;DHT22;1827;50.534;8.316;2023-04-12T16:28:57;11.40;99.90
3626;DHT22;1827;50.534;8.316;2023-04-12T16:31:24;11.40;99.90
3626;DHT22;1827;50.534;8.316;2023-04-12T16:33:50;11.40;99.90
3626;DHT22;1827;50.534;8.316;2023-04-12T16:36:16;11.50;99.90
3626;DHT22;1827;50.534;8.316;2023-04-12T16:38:42;11.60;99.90
3626;DHT22;1827;50.534;8.316;2023-04-12T16:41:08;11.50;99.90
3626;DHT22;1827;50.534;8.316;2023-04-12T16:43:34;11.60;99.90
3626;DHT22;1827;50.534;8.316;2023-04-12T16:46:04;11.70;99.90